Time;durP1;ratioP1;P1;durP2;ratioP2;P2;SDS_P1;SDS_P2;PMS_P1;PMS_P2;Temp;Humidity;BMP_temperature;BMP_pressure;BME280_temperature;BME280_humidity;BME280_pressure;Samples;Min_cycle;Max_cycle;Signal;HPM_P1;HPM_P2
2023/12/27 00:00:43;;;;;;;12.60;0.80;;;;;;;-146.25;100.00;52631.78;2087584;28;31167;-74
2023/12/27 00:01:45;;;;;;;13.43;1.10;;;;;;;-146.25;100.00;52635.84;2087302;28;33634;-74
2023/12/27 00:02:47;;;;;;;10.13;0.93;;;;;;;-146.25;100.00;52656.13;2087704;28;33900;-72
2023/12/27 00:03:50;;;;;;;15.20;0.88;;;;;;;-146.25;100.00;52611.50;2087528;28;20152;-74
2023/12/27 00:04:51;;;;;;;15.25;1.00;;;;;;;-146.25;100.00;52611.50;2086457;28;39307;-74
2023/12/27 00:05:53;;;;;;;10.68;1.13;;;;;;;-146.25;100.00;52615.56;2087594;28;31515;-75
2023/12/27 00:06:56;;;;;;;10.90;1.10;;;;;;;-146.25;100.00;52643.97;2086955;28;32976;-74
2023/12/27 00:07:58;;;;;;;15.23;0.60;;;;;;;-146.25;100.00;52664.22;2086787;28;36878;-75
2023/12/27 00:09:00;;;;;;;8.85;1.20;;;;;;;-146.25;100.00;52605.44;2087308;28;33487;-75
2023/12/27 00:10:03;;;;;;;16.48;1.25;;;;;;;-146.25;100.00;52623.69;2087138;28;36463;-75
2023/12/27 00:11:04;;;;;;;10.80;1.10;;;;;;;-146.25;100.00;52627.75;2087575;28;31380;-75
2023/12/27 00:12:06;;;;;;;8.88;0.60;;;;;;;-146.25;100.00;52658.16;2087111;28;31168;-75
2023/12/27 00:13:08;;;;;;;8.55;0.90;;;;;;;-146.25;100.00;52629.75;2087618;28;33422;-73
2023/12/27 00:14:10;;;;;;;12.52;0.98;;;;;;;-146.25;100.00;52639.91;2087966;28;34253;-75
2023/12/27 00:15:12;;;;;;;12.77;0.95;;;;;;;-146.25;100.00;52641.94;2088556;28;32734;-75
2023/12/27 00:16:14;;;;;;;8.27;1.00;;;;;;;-146.25;100.00;52619.63;2079365;28;33440;-73
2023/12/27 00:17:18;;;;;;;9.20;1.08;;;;;;;-146.25;100.00;52656.13;2079583;28;36295;-75
2023/12/27 00:18:20;;;;;;;10.95;0.90;;;;;;;-146.25;100.00;52637.88;2087831;28;34555;-75
2023/12/27 00:19:22;;;;;;;7.40;0.75;;;;;;;-146.25;100.00;52617.59;2088190;28;33663;-74
2023/12/27 00:20:23;;;;;;;9.27;0.80;;;;;;;-146.25;100.00;52645.97;2088493;28;37075;-74
2023/12/27 00:21:27;;;;;;;12.05;0.82;;;;;;;-146.25;100.00;52635.84;2090181;28;20956;-74
2023/12/27 00:22:28;;;;;;;9.07;0.73;;;;;;;-146.25;100.00;52615.56;2088730;28;35618;-74
2023/12/27 00:23:30;;;;;;;13.57;1.10;;;;;;;-146.25;100.00;52605.44;2088919;28;32797;-75
2023/12/27 00:24:32;;;;;;;14.95;0.98;;;;;;;-146.25;100.00;52615.56;2088911;28;31565;-74
2023/12/27 00:25:34;;;;;;;12.65;1.30;;;;;;;-146.25;100.00;52639.91;2089013;28;33576;-73
2023/12/27 00:26:36;;;;;;;15.90;1.20;;;;;;;-146.25;100.00;52623.69;2088974;28;33639;-75
2023/12/27 00:27:37;;;;;;;18.08;1.17;;;;;;;-146.25;100.00;52650.03;2089266;28;20045;-75
2023/12/27 00:28:39;;;;;;;15.13;1.00;;;;;;;-146.25;100.00;52650.03;2079813;28;22923;-75
2023/12/27 00:29:41;;;;;;;8.82;0.80;;;;;;;-146.25;100.00;52635.84;2080090;28;21884;-74
2023/12/27 00:30:43;;;;;;;10.57;1.08;;;;;;;-146.25;100.00;52615.56;2088173;28;20089;-74
2023/12/27 00:31:45;;;;;;;10.70;1.00;;;;;;;-146.25;100.00;52615.56;2080047;28;32837;-75
2023/12/27 00:32:48;;;;;;;16.15;1.00;;;;;;;-146.25;100.00;52668.28;2080537;28;20107;-73
2023/12/27 00:33:50;;;;;;;16.08;1.20;;;;;;;-146.25;100.00;52609.50;2088654;28;20056;-74
2023/12/27 00:34:52;;;;;;;11.63;1.00;;;;;;;-146.25;100.00;52623.69;2079992;28;24365;-75
2023/12/27 00:35:56;;;;;;;14.48;1.58;;;;;;;-146.25;100.00;52623.69;2080346;28;23924;-74
2023/12/27 00:36:58;;;;;;;13.13;0.95;;;;;;;-146.25;100.00;52617.59;2088616;28;20850;-74
2023/12/27 00:38:00;;;;;;;10.07;0.73;;;;;;;-146.25;100.00;52627.75;2088956;28;21893;-75
2023/12/27 00:39:03;;;;;;;12.27;0.95;;;;;;;-146.25;100.00;52629.75;2079618;28;28704;-73
2023/12/27 00:40:07;;;;;;;12.27;0.90;;;;;;;-146.25;100.00;52629.75;2081020;28;20201;-75
2023/12/27 00:41:09;;;;;;;7.50;0.70;;;;;;;-146.25;100.00;52662.22;2087450;28;29733;-74
2023/12/27 00:42:11;;;;;;;11.68;0.95;;;;;;;-146.25;100.00;52637.88;2088833;28;20125;-74
2023/12/27 00:43:14;;;;;;;10.65;1.13;;;;;;;-146.25;100.00;52607.47;2089568;28;20048;-74
2023/12/27 00:44:18;;;;;;;9.88;1.02;;;;;;;-146.25;100.00;52603.41;2088241;28;28282;-75
2023/12/27 00:45:20;;;;;;;18.13;0.98;;;;;;;-146.25;100.00;52643.97;2088693;28;20084;-74
2023/12/27 00:46:22;;;;;;;11.75;1.13;;;;;;;-146.25;100.00;52623.69;2088134;28;31491;-74
2023/12/27 00:47:27;;;;;;;16.42;1.42;;;;;;;-146.25;100.00;52591.25;2080287;28;20030;-74
2023/12/27 00:48:29;;;;;;;12.70;1.33;;;;;;;-146.25;100.00;52617.59;2080685;28;24780;-72
2023/12/27 00:49:30;;;;;;;14.90;1.73;;;;;;;-146.25;100.00;52611.50;2087386;28;36916;-74
2023/12/27 00:50:34;;;;;;;17.38;2.05;;;;;;;-146.25;100.00;52674.38;2088236;28;34990;-74
2023/12/27 00:51:39;;;;;;;14.23;1.50;;;;;;;-146.25;100.00;52607.47;2080253;28;20436;-74
2023/12/27 00:52:40;;;;;;;23.17;1.90;;;;;;;-146.25;100.00;52623.69;2079965;28;30704;-74
2023/12/27 00:53:42;;;;;;;12.80;1.65;;;;;;;-146.25;100.00;52587.19;2088417;28;20037;-72
2023/12/27 00:54:44;;;;;;;14.57;1.98;;;;;;;-146.25;100.00;52645.97;2087971;28;34219;-74
2023/12/27 00:55:46;;;;;;;19.33;1.67;;;;;;;-146.25;100.00;52635.84;2087885;28;22508;-74
2023/12/27 00:56:49;;;;;;;15.57;2.03;;;;;;;-146.25;100.00;52609.50;2088383;28;20943;-72
2023/12/27 00:57:53;;;;;;;18.17;2.30;;;;;;;-146.25;100.00;52619.63;2087864;28;27535;-74
2023/12/27 00:58:55;;;;;;;15.07;2.22;;;;;;;-146.25;100.00;52627.75;2089199;28;20037;-74
2023/12/27 00:59:57;;;;;;;11.43;2.28;;;;;;;-146.25;100.00;52629.75;2088496;28;29859;-72
2023/12/27 01:01:01;;;;;;;13.25;1.77;;;;;;;-146.25;100.00;52668.28;2079705;28;25435;-73
2023/12/27 01:02:03;;;;;;;15.23;2.00;;;;;;;-146.25;100.00;52617.59;2080563;28;20958;-73
2023/12/27 01:03:07;;;;;;;14.10;1.52;;;;;;;-146.25;100.00;52619.63;2088322;28;31079;-74
2023/12/27 01:04:09;;;;;;;14.05;1.55;;;;;;;-146.25;100.00;52637.88;2087755;28;26110;-73
2023/12/27 01:05:11;;;;;;;13.43;1.70;;;;;;;-146.25;100.00;52611.50;2080401;28;20105;-73
2023/12/27 01:06:13;;;;;;;10.80;1.00;;;;;;;-146.25;100.00;52637.88;2079822;28;33637;-73
2023/12/27 01:07:15;;;;;;;16.15;1.90;;;;;;;-146.25;100.00;52635.84;2088093;28;20844;-73
2023/12/27 01:08:17;;;;;;;13.95;1.88;;;;;;;-146.25;100.00;52615.56;2087971;28;20842;-74
2023/12/27 01:09:19;;;;;;;18.08;1.85;;;;;;;-146.25;100.00;52658.16;2088847;28;27541;-73
2023/12/27 01:10:20;;;;;;;13.65;1.50;;;;;;;-146.25;100.00;52601.38;2088544;28;31385;-73
2023/12/27 01:11:23;;;;;;;12.35;1.77;;;;;;;-146.25;100.00;52603.41;2088522;28;20053;-74
2023/12/27 01:12:25;;;;;;;12.65;1.70;;;;;;;-146.25;100.00;52615.56;2087661;28;30080;-73
2023/12/27 01:13:28;;;;;;;12.40;1.10;;;;;;;-146.25;100.00;52615.56;2088280;28;20103;-73
2023/12/27 01:14:30;;;;;;;12.18;1.33;;;;;;;-146.25;100.00;52613.53;2087953;28;25944;-73
2023/12/27 01:15:32;;;;;;;9.02;1.10;;;;;;;-146.25;100.00;52623.69;2088345;28;31722;-73
2023/12/27 01:16:34;;;;;;;12.50;1.30;;;;;;;-146.25;100.00;52635.84;2088340;28;21496;-73
2023/12/27 01:17:35;;;;;;;9.55;1.10;;;;;;;-146.25;100.00;52625.72;2089173;28;20129;-74
2023/12/27 01:18:37;;;;;;;9.35;0.85;;;;;;;-146.25;100.00;52650.03;2088115;28;32761;-73
2023/12/27 01:19:39;;;;;;;11.93;1.00;;;;;;;-146.25;100.00;52645.97;2088608;28;27864;-74
2023/12/27 01:20:41;;;;;;;16.33;1.15;;;;;;;-146.25;100.00;52623.69;2079769;28;20038;-73
2023/12/27 01:21:45;;;;;;;11.60;1.60;;;;;;;-146.25;100.00;52631.78;2080580;28;20081;-74
2023/12/27 01:22:47;;;;;;;8.23;0.98;;;;;;;-146.25;100.00;52603.41;2087722;28;20158;-74
2023/12/27 01:23:51;;;;;;;15.80;1.30;;;;;;;-146.25;100.00;52648.00;2088334;28;20053;-73
2023/12/27 01:24:54;;;;;;;8.07;1.00;;;;;;;-146.25;100.00;52633.81;2079364;28;27343;-73
2023/12/27 01:25:56;;;;;;;11.95;1.30;;;;;;;-146.25;100.00;52603.41;2079839;28;28466;-74
2023/12/27 01:26:58;;;;;;;15.20;1.02;;;;;;;-146.25;100.00;52575.00;2079929;28;20243;-73
2023/12/27 01:27:59;;;;;;;9.98;1.15;;;;;;;-146.25;100.00;52609.50;2071908;28;27655;-74
2023/12/27 01:29:01;;;;;;;14.20;1.38;;;;;;;-146.25;100.00;52656.13;2079610;28;21462;-73
2023/12/27 01:30:04;;;;;;;10.73;1.08;;;;;;;-146.25;100.00;52684.50;2079852;28;29280;-74
2023/12/27 01:31:08;;;;;;;9.45;1.10;;;;;;;-146.25;100.00;52658.16;2087262;28;35682;-73
2023/12/27 01:32:13;;;;;;;5.57;0.70;;;;;;;-146.25;100.00;52619.63;2087874;28;20076;-73
2023/12/27 01:33:15;;;;;;;12.85;1.20;;;;;;;-146.25;100.00;52619.63;2087559;28;27807;-73
2023/12/27 01:34:18;;;;;;;12.38;1.02;;;;;;;-146.25;100.00;52633.81;2087539;28;28715;-74
2023/12/27 01:35:23;;;;;;;12.77;0.80;;;;;;;-146.25;100.00;52648.00;2088354;28;20044;-73
2023/12/27 01:36:27;;;;;;;14.55;0.93;;;;;;;-146.25;100.00;52643.97;2088297;28;20037;-74
2023/12/27 01:37:29;;;;;;;7.10;0.65;;;;;;;-146.25;100.00;52635.84;2088291;28;25421;-73
2023/12/27 01:38:31;;;;;;;9.68;0.80;;;;;;;-146.25;100.00;52625.72;2087665;28;20049;-73
2023/12/27 01:39:34;;;;;;;11.93;0.98;;;;;;;-146.25;100.00;52615.56;2087917;28;20053;-73
2023/12/27 01:40:35;;;;;;;9.15;1.15;;;;;;;-146.25;100.00;52597.31;2088209;28;23272;-73
2023/12/27 01:41:37;;;;;;;15.38;1.15;;;;;;;-146.25;100.00;52656.13;2088314;28;20045;-72
2023/12/27 01:42:39;;;;;;;15.35;1.00;;;;;;;-146.25;100.00;52650.03;2087880;28;29988;-74
2023/12/27 01:43:41;;;;;;;17.67;1.65;;;;;;;-146.25;100.00;52645.97;2087809;28;22438;-73
2023/12/27 01:44:43;;;;;;;18.98;1.95;;;;;;;-146.25;100.00;52625.72;2087698;28;34431;-73
2023/12/27 01:45:47;;;;;;;14.40;1.17;;;;;;;-146.25;100.00;52635.84;2087700;28;29979;-73
2023/12/27 01:46:49;;;;;;;11.43;1.13;;;;;;;-146.25;100.00;52639.91;2088165;28;20261;-73
2023/12/27 01:47:51;;;;;;;13.27;0.98;;;;;;;-146.25;100.00;52635.84;2079787;28;20402;-73
2023/12/27 01:48:56;;;;;;;13.15;1.20;;;;;;;-146.25;100.00;52631.78;2071684;28;33044;-73
2023/12/27 01:49:58;;;;;;;7.10;0.95;;;;;;;-146.25;100.00;52617.59;2071782;28;30987;-73
2023/12/27 01:51:01;;;;;;;10.70;1.10;;;;;;;-146.25;100.00;52648.00;2079600;28;27578;-73
2023/12/27 01:52:03;;;;;;;9.43;1.13;;;;;;;-146.25;100.00;52629.75;2088302;28;30422;-73
2023/12/27 01:53:08;;;;;;;8.25;0.60;;;;;;;-146.25;100.00;52639.91;2088980;28;20099;-73
2023/12/27 01:54:11;;;;;;;10.73;0.90;;;;;;;-146.25;100.00;52637.88;2087735;28;20163;-73
2023/12/27 01:55:14;;;;;;;11.02;0.75;;;;;;;-146.25;100.00;52611.50;2087778;28;28795;-73
2023/12/27 01:56:17;;;;;;;14.90;1.17;;;;;;;-146.25;100.00;52652.06;2087619;28;20906;-72
2023/12/27 01:57:19;;;;;;;12.85;0.90;;;;;;;-146.25;100.00;52625.72;2079937;28;20038;-73
2023/12/27 01:58:25;;;;;;;10.18;0.90;;;;;;;-146.25;100.00;52650.03;2071921;28;20043;-73
2023/12/27 01:59:27;;;;;;;14.60;1.00;;;;;;;-146.25;100.00;52650.03;2080443;28;20155;-73
2023/12/27 02:00:29;;;;;;;9.43;0.75;;;;;;;-146.25;100.00;52603.41;2087915;28;20091;-72
2023/12/27 02:01:31;;;;;;;10.93;1.30;;;;;;;-146.25;100.00;52627.75;2087918;28;20038;-73
2023/12/27 02:02:33;;;;;;;14.52;1.10;;;;;;;-146.25;100.00;52635.84;2087865;28;20163;-72
2023/12/27 02:03:35;;;;;;;14.23;0.77;;;;;;;-146.25;100.00;52639.91;2087933;28;28806;-73
2023/12/27 02:04:36;;;;;;;12.55;1.15;;;;;;;-146.25;100.00;52627.75;2088377;28;20092;-72
2023/12/27 02:05:41;;;;;;;11.13;1.00;;;;;;;-146.25;100.00;52658.16;2087639;28;29853;-73
2023/12/27 02:06:44;;;;;;;16.05;1.10;;;;;;;-146.25;100.00;52641.94;2087788;28;20952;-73
2023/12/27 02:07:46;;;;;;;12.10;1.13;;;;;;;-146.25;100.00;52643.97;2088279;28;21054;-73
2023/12/27 02:08:49;;;;;;;13.52;1.48;;;;;;;-146.25;100.00;52605.44;2087177;28;32405;-73
2023/12/27 02:09:52;;;;;;;11.77;0.95;;;;;;;-146.25;100.00;52609.50;2088016;28;20903;-73
2023/12/27 02:10:55;;;;;;;15.35;1.42;;;;;;;-146.25;100.00;52623.69;2088036;28;20038;-73
2023/12/27 02:11:56;;;;;;;7.53;0.80;;;;;;;-146.25;100.00;52623.69;2088175;28;20199;-73
2023/12/27 02:13:07;;;;;;;8.02;0.98;;;;;;;-146.25;100.00;52625.72;2087157;28;25126;-73
2023/12/27 02:14:09;;;;;;;14.52;1.73;;;;;;;-146.25;100.00;52641.94;2079840;28;27448;-73
2023/12/27 02:15:13;;;;;;;18.25;1.40;;;;;;;-146.25;100.00;52605.44;2079606;28;22541;-73
2023/12/27 02:16:16;;;;;;;14.27;1.20;;;;;;;-146.25;100.00;52637.88;2088417;28;20037;-73
2023/12/27 02:17:19;;;;;;;13.57;1.15;;;;;;;-146.25;100.00;52639.91;2087411;28;20669;-73
2023/12/27 02:18:23;;;;;;;8.25;1.27;;;;;;;-146.25;100.00;52631.78;2079541;28;20046;-73
2023/12/27 02:19:25;;;;;;;9.13;1.10;;;;;;;-146.25;100.00;52654.09;2071504;28;20973;-73
2023/12/27 02:20:27;;;;;;;11.38;0.98;;;;;;;-146.25;100.00;52615.56;2071684;28;22782;-73
2023/12/27 02:21:31;;;;;;;7.82;0.95;;;;;;;-146.25;100.00;52641.94;2087195;28;31495;-72
2023/12/27 02:22:35;;;;;;;12.07;1.20;;;;;;;-146.25;100.00;52611.50;2079651;28;23614;-73
2023/12/27 02:23:39;;;;;;;15.10;1.30;;;;;;;-146.25;100.00;52645.97;2071009;28;29987;-73
2023/12/27 02:24:41;;;;;;;22.35;1.30;;;;;;;-146.25;100.00;52615.56;2080654;28;20034;-73
2023/12/27 02:25:45;;;;;;;9.23;0.60;;;;;;;-146.25;100.00;52648.00;2088319;28;20168;-73
2023/12/27 02:26:47;;;;;;;11.02;1.00;;;;;;;-146.25;100.00;52613.53;2079268;28;32222;-73
2023/12/27 02:27:49;;;;;;;14.18;1.27;;;;;;;-146.25;100.00;52648.00;2079243;28;28029;-72
2023/12/27 02:28:51;;;;;;;15.38;1.10;;;;;;;-146.25;100.00;52613.53;2079364;28;30869;-73
2023/12/27 02:29:53;;;;;;;12.20;0.60;;;;;;;-146.25;100.00;52617.59;2063113;28;20046;-73
2023/12/27 02:30:57;;;;;;;9.80;0.88;;;;;;;-146.25;100.00;52639.91;2071126;28;33637;-73
2023/12/27 02:31:59;;;;;;;8.73;0.80;;;;;;;-146.25;100.00;52615.56;2087509;28;24723;-73
2023/12/27 02:33:01;;;;;;;11.05;1.10;;;;;;;-146.25;100.00;52631.78;2079734;28;20903;-73
2023/12/27 02:34:06;;;;;;;11.35;1.45;;;;;;;-146.25;100.00;52635.84;2071323;28;20072;-73
2023/12/27 02:35:09;;;;;;;16.58;1.25;;;;;;;-146.25;100.00;52609.50;2080444;28;20181;-72
2023/12/27 02:36:11;;;;;;;11.32;0.90;;;;;;;-146.25;100.00;52660.19;2087426;28;30269;-73
2023/12/27 02:37:12;;;;;;;11.15;0.80;;;;;;;-146.25;100.00;52648.00;2088137;28;23921;-72
2023/12/27 02:38:14;;;;;;;11.55;1.10;;;;;;;-146.25;100.00;52648.00;2088165;28;26791;-73
2023/12/27 02:39:19;;;;;;;11.98;0.90;;;;;;;-146.25;100.00;52656.13;2088370;28;20975;-73
2023/12/27 02:40:21;;;;;;;14.80;1.10;;;;;;;-146.25;100.00;52648.00;2088328;28;20042;-73
2023/12/27 02:41:23;;;;;;;9.23;1.70;;;;;;;-146.25;100.00;52652.06;2087701;28;31755;-72
2023/12/27 02:42:25;;;;;;;15.75;1.35;;;;;;;-146.25;100.00;52643.97;2087769;28;35279;-73
2023/12/27 02:43:27;;;;;;;14.68;1.17;;;;;;;-146.25;100.00;52615.56;2088097;28;24894;-73
2023/12/27 02:44:28;;;;;;;13.57;1.00;;;;;;;-146.25;100.00;52643.97;2088207;28;23069;-72
2023/12/27 02:45:30;;;;;;;11.63;1.08;;;;;;;-146.25;100.00;52639.91;2088685;28;20049;-73
2023/12/27 02:46:34;;;;;;;6.90;0.80;;;;;;;-146.25;100.00;52613.53;2087327;28;20056;-73
2023/12/27 02:47:38;;;;;;;13.77;1.15;;;;;;;-146.25;100.00;52637.88;2087634;28;20172;-73
2023/12/27 02:48:40;;;;;;;13.95;1.50;;;;;;;-146.25;100.00;52609.50;2071231;28;20950;-72
2023/12/27 02:49:43;;;;;;;13.88;1.10;;;;;;;-146.25;100.00;52650.03;2072140;28;20046;-73
2023/12/27 02:50:45;;;;;;;15.18;1.48;;;;;;;-146.25;100.00;52645.97;2087595;28;20172;-72
2023/12/27 02:51:48;;;;;;;19.00;1.48;;;;;;;-146.25;100.00;52617.59;2088057;28;32377;-73
2023/12/27 02:52:50;;;;;;;16.83;1.25;;;;;;;-146.25;100.00;52607.47;2087717;28;30449;-73
2023/12/27 02:53:51;;;;;;;16.25;1.27;;;;;;;-146.25;100.00;52631.78;2087438;28;32123;-73
2023/12/27 02:54:55;;;;;;;12.65;1.52;;;;;;;-146.25;100.00;52607.47;2087228;28;26294;-72
2023/12/27 02:55:58;;;;;;;12.05;1.52;;;;;;;-146.25;100.00;52639.91;2087741;28;20814;-72
2023/12/27 02:57:00;;;;;;;16.50;1.55;;;;;;;-146.25;100.00;52635.84;2087786;28;27926;-73
2023/12/27 02:58:07;;;;;;;14.30;1.25;;;;;;;-146.25;100.00;52617.59;2087731;28;20119;-73
2023/12/27 02:59:09;;;;;;;16.27;1.65;;;;;;;-146.25;100.00;52607.47;2087441;28;24955;-72
2023/12/27 03:00:12;;;;;;;12.18;1.33;;;;;;;-146.25;100.00;52603.41;2087317;28;27117;-72
2023/12/27 03:01:13;;;;;;;7.45;1.40;;;;;;;-146.25;100.00;52625.72;2088146;28;20879;-72
2023/12/27 03:02:17;;;;;;;14.23;1.17;;;;;;;-146.25;100.00;52627.75;2087928;28;28732;-73
2023/12/27 03:03:21;;;;;;;14.73;1.42;;;;;;;-146.25;100.00;52587.19;2079185;28;20850;-73
2023/12/27 03:04:23;;;;;;;13.73;1.25;;;;;;;-146.25;100.00;52619.63;2071492;28;24919;-73
2023/12/27 03:05:28;;;;;;;10.98;1.17;;;;;;;-146.25;100.00;52680.47;2079891;28;20046;-72
2023/12/27 03:06:30;;;;;;;16.55;1.25;;;;;;;-146.25;100.00;52607.47;2079584;28;20050;-72
2023/12/27 03:07:32;;;;;;;10.40;1.00;;;;;;;-146.25;100.00;52627.75;2078653;28;28765;-72
2023/12/27 03:08:37;;;;;;;11.32;1.10;;;;;;;-146.25;100.00;52645.97;2088163;28;25520;-73
2023/12/27 03:09:41;;;;;;;13.57;1.50;;;;;;;-146.25;100.00;52660.19;2088334;28;20978;-73
2023/12/27 03:10:42;;;;;;;7.90;1.58;;;;;;;-146.25;100.00;52648.00;2087820;28;30278;-72
2023/12/27 03:11:44;;;;;;;21.38;1.40;;;;;;;-146.25;100.00;52623.69;2088383;28;20041;-73
2023/12/27 03:12:46;;;;;;;13.18;1.33;;;;;;;-146.25;100.00;52621.66;2088172;28;25304;-73
2023/12/27 03:13:48;;;;;;;15.00;1.05;;;;;;;-146.25;100.00;52617.59;2086858;28;22153;-73
2023/12/27 03:14:50;;;;;;;11.38;1.10;;;;;;;-146.25;100.00;52670.31;2087458;28;24887;-72
2023/12/27 03:15:52;;;;;;;19.05;1.35;;;;;;;-146.25;100.00;52635.84;2087859;28;26484;-72
2023/12/27 03:16:53;;;;;;;17.00;1.67;;;;;;;-146.25;100.00;52641.94;2088296;28;20037;-73
2023/12/27 03:17:55;;;;;;;13.65;1.17;;;;;;;-146.25;100.00;52615.56;2088129;28;27108;-73
2023/12/27 03:18:57;;;;;;;12.73;0.93;;;;;;;-146.25;100.00;52637.88;2079282;28;30296;-73
2023/12/27 03:20:04;;;;;;;11.07;1.10;;;;;;;-146.25;100.00;52648.00;2078954;28;25733;-73
2023/12/27 03:21:07;;;;;;;12.88;1.42;;;;;;;-146.25;100.00;52631.78;2087410;28;26524;-73
2023/12/27 03:22:09;;;;;;;17.58;1.30;;;;;;;-146.25;100.00;52639.91;2087611;28;20841;-73
2023/12/27 03:23:11;;;;;;;14.07;1.20;;;;;;;-146.25;100.00;52631.78;2086900;28;37910;-71
2023/12/27 03:24:13;;;;;;;13.80;1.88;;;;;;;-146.25;100.00;52601.38;2087025;28;20064;-73
2023/12/27 03:25:14;;;;;;;13.23;1.42;;;;;;;-146.25;100.00;52648.00;2078925;28;26272;-73
2023/12/27 03:26:16;;;;;;;11.48;1.00;;;;;;;-146.25;100.00;52633.81;2078687;28;29734;-73
2023/12/27 03:27:21;;;;;;;12.48;1.13;;;;;;;-146.25;100.00;52635.84;2088384;28;20029;-73
2023/12/27 03:28:24;;;;;;;14.13;1.30;;;;;;;-146.25;100.00;52672.34;2078598;28;20038;-73
2023/12/27 03:29:26;;;;;;;11.50;1.23;;;;;;;-146.25;100.00;52648.00;2079512;28;25912;-74
2023/12/27 03:30:27;;;;;;;13.90;1.58;;;;;;;-146.25;100.00;52603.41;2087534;28;27415;-73
2023/12/27 03:31:29;;;;;;;12.93;2.22;;;;;;;-146.25;100.00;52635.84;2087571;28;27096;-73
2023/12/27 03:32:31;;;;;;;13.27;1.30;;;;;;;-146.25;100.00;52654.09;2088189;28;20092;-73
2023/12/27 03:33:35;;;;;;;11.48;1.48;;;;;;;-146.25;100.00;52623.69;2087388;28;28455;-73
2023/12/27 03:34:38;;;;;;;11.73;1.48;;;;;;;-146.25;100.00;52648.00;2087442;28;27688;-74
2023/12/27 03:35:40;;;;;;;5.78;1.23;;;;;;;-146.25;100.00;52648.00;2087065;28;28318;-73
2023/12/27 03:36:42;;;;;;;14.20;1.65;;;;;;;-146.25;100.00;52607.47;2086737;28;27046;-73
2023/12/27 03:37:45;;;;;;;12.32;1.15;;;;;;;-146.25;100.00;52623.69;2087905;28;20160;-73
2023/12/27 03:38:46;;;;;;;11.05;1.35;;;;;;;-146.25;100.00;52633.81;2078788;28;30558;-73
2023/12/27 03:39:50;;;;;;;11.05;1.10;;;;;;;-146.25;100.00;52591.25;2079627;28;20877;-72
2023/12/27 03:40:54;;;;;;;9.05;0.95;;;;;;;-146.25;100.00;52652.06;2086915;28;21201;-73
2023/12/27 03:41:56;;;;;;;12.85;1.00;;;;;;;-146.25;100.00;52645.97;2086971;28;33570;-73
2023/12/27 03:42:58;;;;;;;17.90;1.10;;;;;;;-146.25;100.00;52645.97;2087374;28;20108;-73
2023/12/27 03:44:00;;;;;;;6.68;1.08;;;;;;;-146.25;100.00;52605.44;2078310;28;33904;-74
2023/12/27 03:45:02;;;;;;;8.13;0.77;;;;;;;-146.25;100.00;52611.50;2078899;28;20666;-73
2023/12/27 03:46:03;;;;;;;15.52;1.63;;;;;;;-146.25;100.00;52611.50;2087763;28;28694;-74
2023/12/27 03:47:05;;;;;;;9.68;0.95;;;;;;;-146.25;100.00;52654.09;2078244;28;25426;-74
2023/12/27 03:48:08;;;;;;;9.55;1.13;;;;;;;-146.25;100.00;52617.59;2079852;28;20046;-74
2023/12/27 03:49:10;;;;;;;11.95;0.98;;;;;;;-146.25;100.00;52607.47;2088262;28;26399;-73
2023/12/27 03:50:17;;;;;;;7.43;1.25;;;;;;;-146.25;100.00;52627.75;2080821;28;20050;-73
2023/12/27 03:51:23;;;;;;;12.25;1.27;;;;;;;-146.25;100.00;52603.41;2080470;28;33024;-73
2023/12/27 03:52:25;;;;;;;12.25;1.17;;;;;;;-146.25;100.00;52613.53;2088389;28;33960;-73
2023/12/27 03:53:28;;;;;;;10.30;1.13;;;;;;;-146.25;100.00;52607.47;2088823;28;20053;-74
2023/12/27 03:54:30;;;;;;;13.48;1.25;;;;;;;-146.25;100.00;52613.53;2080457;28;23797;-73
2023/12/27 03:55:32;;;;;;;16.60;1.40;;;;;;;-146.25;100.00;52635.84;2088471;28;22346;-73
2023/12/27 03:56:33;;;;;;;9.35;1.17;;;;;;;-146.25;100.00;52621.66;2088571;28;24486;-73
2023/12/27 03:57:35;;;;;;;14.00;1.48;;;;;;;-146.25;100.00;52631.78;2080063;28;26041;-73
2023/12/27 03:58:40;;;;;;;8.55;1.10;;;;;;;-146.25;100.00;52633.81;2080426;28;26529;-73
2023/12/27 03:59:42;;;;;;;10.95;1.17;;;;;;;-146.25;100.00;52631.78;2089007;28;25124;-74
2023/12/27 04:00:43;;;;;;;17.33;1.70;;;;;;;-146.25;100.00;52656.13;2088879;28;29017;-73
2023/12/27 04:01:45;;;;;;;9.20;1.23;;;;;;;-146.25;100.00;52623.69;2088992;28;20046;-73
2023/12/27 04:02:49;;;;;;;10.50;1.33;;;;;;;-146.25;100.00;52643.97;2089456;28;20044;-73
2023/12/27 04:03:50;;;;;;;7.35;1.20;;;;;;;-146.25;100.00;52615.56;2088959;28;27280;-73
2023/12/27 04:04:52;;;;;;;10.82;1.02;;;;;;;-146.25;100.00;52662.22;2088514;28;29575;-73
2023/12/27 04:05:54;;;;;;;7.85;1.15;;;;;;;-146.25;100.00;52595.28;2089270;28;22625;-74
2023/12/27 04:06:58;;;;;;;14.13;1.67;;;;;;;-146.25;100.00;52593.25;2088943;28;20879;-73
2023/12/27 04:08:00;;;;;;;10.75;1.65;;;;;;;-146.25;100.00;52625.72;2088157;28;32140;-74
2023/12/27 04:09:02;;;;;;;9.43;1.42;;;;;;;-146.25;100.00;52635.84;2088462;28;20277;-73
2023/12/27 04:10:06;;;;;;;12.32;1.70;;;;;;;-146.25;100.00;52641.94;2088689;28;20978;-74
2023/12/27 04:11:08;;;;;;;14.75;1.48;;;;;;;-146.25;100.00;52603.41;2088856;28;33251;-72
2023/12/27 04:12:13;;;;;;;15.88;1.98;;;;;;;-146.25;100.00;52635.84;2089601;28;20065;-73
2023/12/27 04:13:15;;;;;;;13.05;1.40;;;;;;;-146.25;100.00;52599.34;2089043;28;30283;-73
2023/12/27 04:14:19;;;;;;;7.70;1.27;;;;;;;-146.25;100.00;52607.47;2088775;28;25879;-73
2023/12/27 04:15:20;;;;;;;12.00;1.23;;;;;;;-146.25;100.00;52623.69;2088402;28;26042;-73
2023/12/27 04:16:22;;;;;;;10.93;1.38;;;;;;;-146.25;100.00;52611.50;2087985;28;24630;-73
2023/12/27 04:17:25;;;;;;;15.77;1.92;;;;;;;-146.25;100.00;52645.97;2089737;28;20040;-73
2023/12/27 04:18:29;;;;;;;6.45;1.10;;;;;;;-146.25;100.00;52617.59;2089270;28;20044;-72
2023/12/27 04:19:32;;;;;;;8.73;1.25;;;;;;;-146.25;100.00;52629.75;2089350;28;20034;-73
2023/12/27 04:20:34;;;;;;;14.35;1.55;;;;;;;-146.25;100.00;52656.13;2088508;28;20053;-73
2023/12/27 04:21:36;;;;;;;11.35;1.38;;;;;;;-146.25;100.00;52676.41;2072215;28;20043;-74
2023/12/27 04:22:38;;;;;;;10.23;1.50;;;;;;;-146.25;100.00;52621.66;2072457;28;20034;-74
2023/12/27 04:23:39;;;;;;;11.23;1.75;;;;;;;-146.25;100.00;52623.69;2089672;28;20200;-73
2023/12/27 04:24:41;;;;;;;15.77;1.95;;;;;;;-146.25;100.00;52605.44;2088545;28;20737;-73
2023/12/27 04:25:44;;;;;;;12.73;1.63;;;;;;;-146.25;100.00;52625.72;2088841;28;20133;-72
2023/12/27 04:26:46;;;;;;;10.57;1.70;;;;;;;-146.25;100.00;52637.88;2088244;28;28852;-73
2023/12/27 04:27:49;;;;;;;13.63;1.65;;;;;;;-146.25;100.00;52633.81;2088840;28;20056;-74
2023/12/27 04:28:51;;;;;;;14.40;2.22;;;;;;;-146.25;100.00;52609.50;2080225;28;20050;-72
2023/12/27 04:29:52;;;;;;;10.50;1.67;;;;;;;-146.25;100.00;52621.66;2080102;28;25543;-72
2023/12/27 04:30:54;;;;;;;11.52;1.67;;;;;;;-146.25;100.00;52609.50;2088828;28;30890;-73
2023/12/27 04:31:56;;;;;;;11.70;1.90;;;;;;;-146.25;100.00;52623.69;2088612;28;32346;-71
2023/12/27 04:32:58;;;;;;;13.32;1.58;;;;;;;-146.25;100.00;52656.13;2078731;28;20042;-72
2023/12/27 04:34:00;;;;;;;12.25;2.20;;;;;;;-146.25;100.00;52611.50;2088403;28;28825;-73
2023/12/27 04:35:02;;;;;;;10.45;1.52;;;;;;;-146.25;100.00;52629.75;2097060;28;20041;-73
2023/12/27 04:36:07;;;;;;;17.80;2.35;;;;;;;-146.25;100.00;52613.53;2097366;28;20141;-73
2023/12/27 04:37:13;;;;;;;13.63;1.75;;;;;;;-146.25;100.00;52652.06;2097541;28;29468;-72
2023/12/27 04:38:15;;;;;;;8.93;1.50;;;;;;;-146.25;100.00;52601.38;2097199;28;21011;-74
2023/12/27 04:39:18;;;;;;;17.25;1.70;;;;;;;-146.25;100.00;52639.91;2088264;28;20178;-73
2023/12/27 04:40:20;;;;;;;16.23;2.33;;;;;;;-146.25;100.00;52637.88;2088984;28;20041;-72
2023/12/27 04:41:22;;;;;;;15.52;2.20;;;;;;;-146.25;100.00;52605.44;2087865;28;20898;-72